sensor_id;sensor_type;location;lat;lon;timestamp;P1;durP1;ratioP1;P2;durP2;ratioP2
21110;SDS011;10713;51.912;4.494;2023-03-04T00:01:01;10.82;;;3.90;;
21110;SDS011;10713;51.912;4.494;2023-03-04T00:03:27;16.30;;;4.07;;
21110;SDS011;10713;51.912;4.494;2023-03-04T00:05:52;15.23;;;3.90;;
21110;SDS011;10713;51.912;4.494;2023-03-04T00:08:17;14.50;;;3.15;;
21110;SDS011;10713;51.912;4.494;2023-03-04T00:10:43;19.73;;;3.83;;
21110;SDS011;10713;51.912;4.494;2023-03-04T00:13:08;22.13;;;4.10;;
21110;SDS011;10713;51.912;4.494;2023-03-04T00:15:33;20.77;;;4.10;;
21110;SDS011;10713;51.912;4.494;2023-03-04T00:17:59;11.32;;;3.10;;
21110;SDS011;10713;51.912;4.494;2023-03-04T00:20:24;13.68;;;3.75;;
21110;SDS011;10713;51.912;4.494;2023-03-04T00:22:49;16.85;;;3.60;;
21110;SDS011;10713;51.912;4.494;2023-03-04T00:25:15;17.10;;;3.38;;
21110;SDS011;10713;51.912;4.494;2023-03-04T00:27:40;12.65;;;3.10;;
21110;SDS011;10713;51.912;4.494;2023-03-04T00:30:06;20.23;;;3.75;;
21110;SDS011;10713;51.912;4.494;2023-03-04T00:32:32;21.63;;;3.50;;
21110;SDS011;10713;51.912;4.494;2023-03-04T00:34:57;17.92;;;3.33;;
21110;SDS011;10713;51.912;4.494;2023-03-04T00:37:22;10.00;;;3.03;;
21110;SDS011;10713;51.912;4.494;2023-03-04T00:39:48;13.75;;;2.80;;
21110;SDS011;10713;51.912;4.494;2023-03-04T00:42:13;11.07;;;2.83;;
21110;SDS011;10713;51.912;4.494;2023-03-04T00:44:38;13.27;;;2.63;;
21110;SDS011;10713;51.912;4.494;2023-03-04T00:47:04;10.23;;;2.55;;
21110;SDS011;10713;51.912;4.494;2023-03-04T00:49:29;15.50;;;3.38;;
21110;SDS011;10713;51.912;4.494;2023-03-04T00:51:55;18.23;;;3.25;;
21110;SDS011;10713;51.912;4.494;2023-03-04T00:54:20;10.45;;;2.22;;
21110;SDS011;10713;51.912;4.494;2023-03-04T00:56:45;18.55;;;2.85;;
21110;SDS011;10713;51.912;4.494;2023-03-04T00:59:11;10.32;;;2.28;;
21110;SDS011;10713;51.912;4.494;2023-03-04T01:01:36;20.08;;;2.42;;
21110;SDS011;10713;51.912;4.494;2023-03-04T01:04:01;16.00;;;2.40;;
21110;SDS011;10713;51.912;4.494;2023-03-04T01:06:27;20.77;;;2.33;;
21110;SDS011;10713;51.912;4.494;2023-03-04T01:08:52;12.85;;;2.38;;
21110;SDS011;10713;51.912;4.494;2023-03-04T01:11:18;12.15;;;2.50;;
21110;SDS011;10713;51.912;4.494;2023-03-04T01:13:43;13.10;;;2.42;;
21110;SDS011;10713;51.912;4.494;2023-03-04T01:16:08;16.05;;;2.85;;
21110;SDS011;10713;51.912;4.494;2023-03-04T01:18:35;19.02;;;2.63;;
21110;SDS011;10713;51.912;4.494;2023-03-04T01:21:00;13.38;;;2.20;;
21110;SDS011;10713;51.912;4.494;2023-03-04T01:23:26;16.60;;;2.83;;
21110;SDS011;10713;51.912;4.494;2023-03-04T01:25:51;14.30;;;2.33;;
21110;SDS011;10713;51.912;4.494;2023-03-04T01:28:17;10.77;;;2.45;;
21110;SDS011;10713;51.912;4.494;2023-03-04T01:30:42;12.02;;;2.40;;
21110;SDS011;10713;51.912;4.494;2023-03-04T01:33:07;12.52;;;1.98;;
21110;SDS011;10713;51.912;4.494;2023-03-04T01:35:33;9.15;;;2.33;;
21110;SDS011;10713;51.912;4.494;2023-03-04T01:37:58;15.60;;;2.30;;
21110;SDS011;10713;51.912;4.494;2023-03-04T01:40:23;12.20;;;2.30;;
21110;SDS011;10713;51.912;4.494;2023-03-04T01:42:49;11.50;;;2.13;;
21110;SDS011;10713;51.912;4.494;2023-03-04T01:45:15;14.05;;;2.28;;
21110;SDS011;10713;51.912;4.494;2023-03-04T01:47:44;18.83;;;2.03;;
21110;SDS011;10713;51.912;4.494;2023-03-04T01:50:23;8.88;;;2.03;;
21110;SDS011;10713;51.912;4.494;2023-03-04T01:52:54;5.95;;;1.70;;
21110;SDS011;10713;51.912;4.494;2023-03-04T01:55:21;12.65;;;2.25;;
21110;SDS011;10713;51.912;4.494;2023-03-04T01:57:48;14.15;;;2.17;;
21110;SDS011;10713;51.912;4.494;2023-03-04T02:02:58;9.68;;;1.65;;
21110;SDS011;10713;51.912;4.494;2023-03-04T02:05:31;8.68;;;1.65;;
21110;SDS011;10713;51.912;4.494;2023-03-04T02:07:57;13.02;;;1.73;;
21110;SDS011;10713;51.912;4.494;2023-03-04T02:10:25;12.98;;;1.80;;
21110;SDS011;10713;51.912;4.494;2023-03-04T02:12:51;9.98;;;1.83;;
21110;SDS011;10713;51.912;4.494;2023-03-04T02:15:17;13.30;;;2.20;;
21110;SDS011;10713;51.912;4.494;2023-03-04T02:17:43;10.73;;;2.20;;
21110;SDS011;10713;51.912;4.494;2023-03-04T02:23:22;11.18;;;2.08;;
21110;SDS011;10713;51.912;4.494;2023-03-04T02:26:12;9.10;;;1.70;;
21110;SDS011;10713;51.912;4.494;2023-03-04T02:28:40;14.93;;;2.15;;
21110;SDS011;10713;51.912;4.494;2023-03-04T02:31:08;8.23;;;1.80;;
21110;SDS011;10713;51.912;4.494;2023-03-04T02:33:44;11.77;;;1.95;;
21110;SDS011;10713;51.912;4.494;2023-03-04T02:36:10;15.77;;;2.30;;
21110;SDS011;10713;51.912;4.494;2023-03-04T02:38:35;11.32;;;1.85;;
21110;SDS011;10713;51.912;4.494;2023-03-04T02:41:00;7.35;;;1.90;;
21110;SDS011;10713;51.912;4.494;2023-03-04T02:43:27;10.60;;;2.10;;
21110;SDS011;10713;51.912;4.494;2023-03-04T02:45:52;16.45;;;2.53;;
21110;SDS011;10713;51.912;4.494;2023-03-04T02:48:19;11.82;;;1.80;;
21110;SDS011;10713;51.912;4.494;2023-03-04T02:50:49;6.82;;;1.60;;
21110;SDS011;10713;51.912;4.494;2023-03-04T02:53:17;15.07;;;2.28;;
21110;SDS011;10713;51.912;4.494;2023-03-04T02:55:44;8.73;;;1.48;;
21110;SDS011;10713;51.912;4.494;2023-03-04T02:58:10;11.38;;;2.17;;
21110;SDS011;10713;51.912;4.494;2023-03-04T03:00:36;15.32;;;2.33;;
21110;SDS011;10713;51.912;4.494;2023-03-04T03:03:02;10.10;;;1.88;;
21110;SDS011;10713;51.912;4.494;2023-03-04T03:05:28;14.60;;;2.42;;
21110;SDS011;10713;51.912;4.494;2023-03-04T03:07:56;9.25;;;1.85;;
21110;SDS011;10713;51.912;4.494;2023-03-04T03:10:22;9.35;;;1.80;;
21110;SDS011;10713;51.912;4.494;2023-03-04T03:12:47;17.25;;;1.65;;
21110;SDS011;10713;51.912;4.494;2023-03-04T03:15:13;10.13;;;2.22;;
21110;SDS011;10713;51.912;4.494;2023-03-04T03:17:39;13.48;;;1.95;;
21110;SDS011;10713;51.912;4.494;2023-03-04T03:20:04;9.73;;;1.88;;
21110;SDS011;10713;51.912;4.494;2023-03-04T03:22:30;11.52;;;1.95;;
21110;SDS011;10713;51.912;4.494;2023-03-04T03:24:55;7.38;;;1.52;;
21110;SDS011;10713;51.912;4.494;2023-03-04T03:27:21;13.45;;;2.45;;
21110;SDS011;10713;51.912;4.494;2023-03-04T03:29:46;14.55;;;1.88;;
21110;SDS011;10713;51.912;4.494;2023-03-04T03:32:12;10.80;;;1.85;;
21110;SDS011;10713;51.912;4.494;2023-03-04T03:34:37;11.90;;;2.08;;
21110;SDS011;10713;51.912;4.494;2023-03-04T03:37:03;17.80;;;2.13;;
21110;SDS011;10713;51.912;4.494;2023-03-04T03:39:28;13.45;;;1.80;;
21110;SDS011;10713;51.912;4.494;2023-03-04T03:41:53;9.27;;;2.05;;
21110;SDS011;10713;51.912;4.494;2023-03-04T03:44:19;15.55;;;2.03;;
21110;SDS011;10713;51.912;4.494;2023-03-04T03:46:44;12.32;;;1.90;;
21110;SDS011;10713;51.912;4.494;2023-03-04T03:49:10;11.68;;;2.10;;
21110;SDS011;10713;51.912;4.494;2023-03-04T03:51:36;10.80;;;1.60;;
21110;SDS011;10713;51.912;4.494;2023-03-04T03:54:01;14.68;;;1.90;;
21110;SDS011;10713;51.912;4.494;2023-03-04T03:56:27;7.97;;;1.63;;
21110;SDS011;10713;51.912;4.494;2023-03-04T03:58:52;15.68;;;2.22;;
21110;SDS011;10713;51.912;4.494;2023-03-04T04:01:17;18.55;;;1.95;;
21110;SDS011;10713;51.912;4.494;2023-03-04T04:03:43;9.57;;;1.75;;
21110;SDS011;10713;51.912;4.494;2023-03-04T04:06:08;10.70;;;1.70;;
21110;SDS011;10713;51.912;4.494;2023-03-04T04:08:33;17.25;;;1.67;;
21110;SDS011;10713;51.912;4.494;2023-03-04T04:10:59;9.07;;;1.55;;
21110;SDS011;10713;51.912;4.494;2023-03-04T04:13:24;11.45;;;2.38;;
21110;SDS011;10713;51.912;4.494;2023-03-04T04:15:50;9.45;;;1.80;;
21110;SDS011;10713;51.912;4.494;2023-03-04T04:18:16;12.65;;;1.95;;
21110;SDS011;10713;51.912;4.494;2023-03-04T04:20:41;12.50;;;2.20;;
21110;SDS011;10713;51.912;4.494;2023-03-04T04:23:06;9.23;;;1.98;;
21110;SDS011;10713;51.912;4.494;2023-03-04T04:25:32;6.85;;;1.50;;
21110;SDS011;10713;51.912;4.494;2023-03-04T04:27:57;6.72;;;1.65;;
21110;SDS011;10713;51.912;4.494;2023-03-04T04:30:23;6.88;;;1.13;;
21110;SDS011;10713;51.912;4.494;2023-03-04T04:32:48;11.93;;;1.85;;
21110;SDS011;10713;51.912;4.494;2023-03-04T04:35:14;8.48;;;1.40;;
21110;SDS011;10713;51.912;4.494;2023-03-04T04:37:39;7.35;;;1.42;;
21110;SDS011;10713;51.912;4.494;2023-03-04T04:40:05;10.07;;;1.45;;
21110;SDS011;10713;51.912;4.494;2023-03-04T04:42:31;8.32;;;1.38;;
21110;SDS011;10713;51.912;4.494;2023-03-04T04:44:57;12.00;;;1.60;;
21110;SDS011;10713;51.912;4.494;2023-03-04T04:47:22;5.53;;;1.08;;
21110;SDS011;10713;51.912;4.494;2023-03-04T04:49:47;6.13;;;1.50;;
21110;SDS011;10713;51.912;4.494;2023-03-04T04:52:13;7.60;;;1.55;;
21110;SDS011;10713;51.912;4.494;2023-03-04T04:54:38;9.10;;;1.73;;
21110;SDS011;10713;51.912;4.494;2023-03-04T04:57:03;5.90;;;1.40;;
21110;SDS011;10713;51.912;4.494;2023-03-04T04:59:29;8.48;;;1.17;;
21110;SDS011;10713;51.912;4.494;2023-03-04T05:01:54;12.13;;;1.67;;
21110;SDS011;10713;51.912;4.494;2023-03-04T05:04:20;7.88;;;1.60;;
21110;SDS011;10713;51.912;4.494;2023-03-04T05:06:45;8.90;;;1.80;;
21110;SDS011;10713;51.912;4.494;2023-03-04T05:09:11;11.55;;;1.95;;
21110;SDS011;10713;51.912;4.494;2023-03-04T05:11:36;7.90;;;1.67;;
21110;SDS011;10713;51.912;4.494;2023-03-04T05:14:02;9.57;;;1.77;;
21110;SDS011;10713;51.912;4.494;2023-03-04T05:16:27;9.85;;;1.60;;
21110;SDS011;10713;51.912;4.494;2023-03-04T05:18:53;9.93;;;1.58;;
21110;SDS011;10713;51.912;4.494;2023-03-04T05:21:18;9.23;;;1.52;;
21110;SDS011;10713;51.912;4.494;2023-03-04T05:23:44;8.15;;;1.67;;
21110;SDS011;10713;51.912;4.494;2023-03-04T05:26:11;8.10;;;1.50;;
21110;SDS011;10713;51.912;4.494;2023-03-04T05:28:38;11.98;;;1.90;;
21110;SDS011;10713;51.912;4.494;2023-03-04T05:31:04;4.63;;;1.40;;
21110;SDS011;10713;51.912;4.494;2023-03-04T05:33:29;10.85;;;1.98;;
21110;SDS011;10713;51.912;4.494;2023-03-04T05:35:55;10.65;;;1.92;;
21110;SDS011;10713;51.912;4.494;2023-03-04T05:38:21;15.32;;;2.10;;
21110;SDS011;10713;51.912;4.494;2023-03-04T05:40:47;11.90;;;2.15;;
21110;SDS011;10713;51.912;4.494;2023-03-04T05:43:13;10.18;;;1.67;;
21110;SDS011;10713;51.912;4.494;2023-03-04T05:45:39;12.05;;;1.80;;
21110;SDS011;10713;51.912;4.494;2023-03-04T05:48:06;11.95;;;2.03;;
21110;SDS011;10713;51.912;4.494;2023-03-04T05:50:32;19.15;;;2.67;;
21110;SDS011;10713;51.912;4.494;2023-03-04T05:52:58;9.35;;;1.88;;
21110;SDS011;10713;51.912;4.494;2023-03-04T05:55:24;7.13;;;1.67;;
21110;SDS011;10713;51.912;4.494;2023-03-04T05:57:50;14.35;;;2.00;;
21110;SDS011;10713;51.912;4.494;2023-03-04T06:00:16;9.15;;;1.63;;
21110;SDS011;10713;51.912;4.494;2023-03-04T06:02:42;7.45;;;1.70;;
21110;SDS011;10713;51.912;4.494;2023-03-04T06:05:09;7.28;;;1.85;;
21110;SDS011;10713;51.912;4.494;2023-03-04T06:07:35;9.85;;;1.60;;
21110;SDS011;10713;51.912;4.494;2023-03-04T06:10:01;14.25;;;2.30;;
21110;SDS011;10713;51.912;4.494;2023-03-04T06:12:26;12.60;;;2.20;;
21110;SDS011;10713;51.912;4.494;2023-03-04T06:14:52;10.60;;;1.80;;
21110;SDS011;10713;51.912;4.494;2023-03-04T06:17:18;7.47;;;1.67;;
21110;SDS011;10713;51.912;4.494;2023-03-04T06:19:44;6.50;;;1.70;;
21110;SDS011;10713;51.912;4.494;2023-03-04T06:22:09;10.50;;;1.88;;
21110;SDS011;10713;51.912;4.494;2023-03-04T06:24:35;11.43;;;2.10;;
21110;SDS011;10713;51.912;4.494;2023-03-04T06:27:00;5.70;;;1.65;;
21110;SDS011;10713;51.912;4.494;2023-03-04T06:29:26;6.75;;;1.58;;
21110;SDS011;10713;51.912;4.494;2023-03-04T06:31:52;8.32;;;1.92;;
21110;SDS011;10713;51.912;4.494;2023-03-04T06:34:18;11.27;;;2.55;;
21110;SDS011;10713;51.912;4.494;2023-03-04T06:36:43;6.53;;;1.70;;
21110;SDS011;10713;51.912;4.494;2023-03-04T06:39:09;6.68;;;1.77;;
21110;SDS011;10713;51.912;4.494;2023-03-04T06:41:34;4.80;;;1.40;;
21110;SDS011;10713;51.912;4.494;2023-03-04T06:44:02;8.15;;;1.80;;
21110;SDS011;10713;51.912;4.494;2023-03-04T06:46:27;12.00;;;1.98;;
21110;SDS011;10713;51.912;4.494;2023-03-04T06:48:52;11.88;;;1.75;;
21110;SDS011;10713;51.912;4.494;2023-03-04T06:51:18;6.25;;;2.05;;
21110;SDS011;10713;51.912;4.494;2023-03-04T06:53:43;13.38;;;2.20;;
21110;SDS011;10713;51.912;4.494;2023-03-04T06:56:10;18.92;;;2.00;;
21110;SDS011;10713;51.912;4.494;2023-03-04T06:58:37;15.82;;;2.85;;
21110;SDS011;10713;51.912;4.494;2023-03-04T07:01:35;11.00;;;2.30;;
21110;SDS011;10713;51.912;4.494;2023-03-04T07:03:54;7.50;;;1.85;;
21110;SDS011;10713;51.912;4.494;2023-03-04T07:06:22;6.55;;;1.90;;
21110;SDS011;10713;51.912;4.494;2023-03-04T07:08:49;12.55;;;2.58;;
21110;SDS011;10713;51.912;4.494;2023-03-04T07:11:16;10.52;;;2.80;;
21110;SDS011;10713;51.912;4.494;2023-03-04T07:13:42;7.50;;;2.10;;
21110;SDS011;10713;51.912;4.494;2023-03-04T07:16:08;7.80;;;1.80;;
21110;SDS011;10713;51.912;4.494;2023-03-04T07:18:36;11.48;;;2.45;;
21110;SDS011;10713;51.912;4.494;2023-03-04T07:21:03;11.55;;;1.98;;
21110;SDS011;10713;51.912;4.494;2023-03-04T07:23:29;7.80;;;2.25;;
21110;SDS011;10713;51.912;4.494;2023-03-04T07:25:54;7.15;;;1.80;;
21110;SDS011;10713;51.912;4.494;2023-03-04T07:28:19;9.73;;;2.33;;
21110;SDS011;10713;51.912;4.494;2023-03-04T07:30:45;14.50;;;2.20;;
21110;SDS011;10713;51.912;4.494;2023-03-04T07:33:10;11.50;;;1.90;;
21110;SDS011;10713;51.912;4.494;2023-03-04T07:35:37;14.20;;;2.03;;
21110;SDS011;10713;51.912;4.494;2023-03-04T07:38:02;10.85;;;1.80;;
21110;SDS011;10713;51.912;4.494;2023-03-04T07:40:28;7.57;;;2.10;;
21110;SDS011;10713;51.912;4.494;2023-03-04T07:42:53;8.38;;;1.98;;
21110;SDS011;10713;51.912;4.494;2023-03-04T07:45:20;6.50;;;1.40;;
21110;SDS011;10713;51.912;4.494;2023-03-04T07:47:46;8.40;;;1.70;;
21110;SDS011;10713;51.912;4.494;2023-03-04T07:50:12;9.70;;;1.63;;
21110;SDS011;10713;51.912;4.494;2023-03-04T07:52:42;12.00;;;2.80;;
21110;SDS011;10713;51.912;4.494;2023-03-04T07:55:10;7.25;;;1.70;;
21110;SDS011;10713;51.912;4.494;2023-03-04T07:57:38;10.57;;;1.88;;
21110;SDS011;10713;51.912;4.494;2023-03-04T08:00:04;12.70;;;2.15;;
21110;SDS011;10713;51.912;4.494;2023-03-04T08:02:30;10.65;;;1.88;;
21110;SDS011;10713;51.912;4.494;2023-03-04T08:04:56;11.80;;;2.28;;
21110;SDS011;10713;51.912;4.494;2023-03-04T08:07:21;9.07;;;1.88;;
21110;SDS011;10713;51.912;4.494;2023-03-04T08:09:47;6.20;;;1.55;;
21110;SDS011;10713;51.912;4.494;2023-03-04T08:12:12;6.38;;;1.55;;
21110;SDS011;10713;51.912;4.494;2023-03-04T08:14:37;7.13;;;1.88;;
21110;SDS011;10713;51.912;4.494;2023-03-04T08:17:03;10.15;;;2.00;;
21110;SDS011;10713;51.912;4.494;2023-03-04T08:19:28;8.40;;;1.88;;
21110;SDS011;10713;51.912;4.494;2023-03-04T08:21:53;6.00;;;1.23;;
21110;SDS011;10713;51.912;4.494;2023-03-04T08:24:19;5.63;;;1.30;;
21110;SDS011;10713;51.912;4.494;2023-03-04T08:26:45;6.03;;;1.25;;
21110;SDS011;10713;51.912;4.494;2023-03-04T08:29:16;4.35;;;1.20;;
21110;SDS011;10713;51.912;4.494;2023-03-04T08:31:44;5.68;;;1.13;;
21110;SDS011;10713;51.912;4.494;2023-03-04T08:34:11;3.65;;;1.08;;
21110;SDS011;10713;51.912;4.494;2023-03-04T08:36:38;10.63;;;1.05;;
21110;SDS011;10713;51.912;4.494;2023-03-04T08:39:04;6.65;;;1.27;;
21110;SDS011;10713;51.912;4.494;2023-03-04T08:41:30;6.25;;;1.20;;
21110;SDS011;10713;51.912;4.494;2023-03-04T08:43:56;4.65;;;1.23;;
21110;SDS011;10713;51.912;4.494;2023-03-04T08:46:21;4.28;;;1.00;;
21110;SDS011;10713;51.912;4.494;2023-03-04T08:48:46;8.88;;;1.42;;
21110;SDS011;10713;51.912;4.494;2023-03-04T08:51:13;5.50;;;1.23;;
21110;SDS011;10713;51.912;4.494;2023-03-04T08:53:40;1.73;;;0.77;;
21110;SDS011;10713;51.912;4.494;2023-03-04T08:56:05;1.75;;;0.50;;
21110;SDS011;10713;51.912;4.494;2023-03-04T08:58:32;4.43;;;0.80;;
21110;SDS011;10713;51.912;4.494;2023-03-04T09:00:57;3.00;;;0.73;;
21110;SDS011;10713;51.912;4.494;2023-03-04T09:03:24;2.42;;;0.82;;
21110;SDS011;10713;51.912;4.494;2023-03-04T09:05:50;2.67;;;0.80;;
21110;SDS011;10713;51.912;4.494;2023-03-04T09:08:15;3.20;;;0.75;;
21110;SDS011;10713;51.912;4.494;2023-03-04T09:10:41;3.13;;;0.90;;
21110;SDS011;10713;51.912;4.494;2023-03-04T09:13:07;6.50;;;0.80;;
21110;SDS011;10713;51.912;4.494;2023-03-04T09:15:35;6.68;;;0.70;;
21110;SDS011;10713;51.912;4.494;2023-03-04T09:18:02;1.88;;;0.73;;
21110;SDS011;10713;51.912;4.494;2023-03-04T09:20:28;3.72;;;0.70;;
21110;SDS011;10713;51.912;4.494;2023-03-04T09:22:54;3.75;;;0.70;;
21110;SDS011;10713;51.912;4.494;2023-03-04T09:25:20;5.80;;;1.20;;
21110;SDS011;10713;51.912;4.494;2023-03-04T09:27:45;5.47;;;1.13;;
21110;SDS011;10713;51.912;4.494;2023-03-04T09:30:10;3.67;;;1.00;;
21110;SDS011;10713;51.912;4.494;2023-03-04T09:32:36;2.17;;;0.82;;
21110;SDS011;10713;51.912;4.494;2023-03-04T09:35:02;2.70;;;0.80;;
21110;SDS011;10713;51.912;4.494;2023-03-04T09:37:28;4.53;;;1.27;;
21110;SDS011;10713;51.912;4.494;2023-03-04T09:39:53;4.25;;;1.08;;
21110;SDS011;10713;51.912;4.494;2023-03-04T09:42:29;4.95;;;1.08;;
21110;SDS011;10713;51.912;4.494;2023-03-04T09:44:59;3.90;;;1.13;;
21110;SDS011;10713;51.912;4.494;2023-03-04T09:47:26;5.22;;;1.15;;
21110;SDS011;10713;51.912;4.494;2023-03-04T09:49:55;4.82;;;1.30;;
21110;SDS011;10713;51.912;4.494;2023-03-04T10:05:37;4.47;;;1.10;;
21110;SDS011;10713;51.912;4.494;2023-03-04T10:16:50;6.60;;;1.05;;
21110;SDS011;10713;51.912;4.494;2023-03-04T10:22:18;5.57;;;1.10;;
21110;SDS011;10713;51.912;4.494;2023-03-04T10:24:51;4.75;;;1.00;;
21110;SDS011;10713;51.912;4.494;2023-03-04T10:27:20;10.98;;;1.38;;
21110;SDS011;10713;51.912;4.494;2023-03-04T10:29:47;6.13;;;1.20;;
21110;SDS011;10713;51.912;4.494;2023-03-04T10:32:14;3.30;;;0.77;;
21110;SDS011;10713;51.912;4.494;2023-03-04T10:34:43;6.75;;;1.20;;
21110;SDS011;10713;51.912;4.494;2023-03-04T10:37:08;2.67;;;0.93;;
21110;SDS011;10713;51.912;4.494;2023-03-04T10:39:39;5.63;;;1.30;;
21110;SDS011;10713;51.912;4.494;2023-03-04T10:44:37;2.25;;;0.88;;
21110;SDS011;10713;51.912;4.494;2023-03-04T10:47:08;5.10;;;1.15;;
21110;SDS011;10713;51.912;4.494;2023-03-04T10:49:36;3.60;;;0.90;;
21110;SDS011;10713;51.912;4.494;2023-03-04T10:55:06;4.47;;;1.00;;
21110;SDS011;10713;51.912;4.494;2023-03-04T10:57:40;4.95;;;1.02;;
21110;SDS011;10713;51.912;4.494;2023-03-04T11:02:41;3.05;;;1.05;;
21110;SDS011;10713;51.912;4.494;2023-03-04T11:07:40;5.95;;;1.10;;
21110;SDS011;10713;51.912;4.494;2023-03-04T11:12:54;4.22;;;1.35;;
21110;SDS011;10713;51.912;4.494;2023-03-04T11:15:24;3.20;;;0.90;;
21110;SDS011;10713;51.912;4.494;2023-03-04T11:18:05;4.22;;;1.30;;
21110;SDS011;10713;51.912;4.494;2023-03-04T11:20:37;4.03;;;1.20;;
21110;SDS011;10713;51.912;4.494;2023-03-04T11:23:09;4.35;;;1.00;;
21110;SDS011;10713;51.912;4.494;2023-03-04T11:25:46;6.22;;;1.55;;
21110;SDS011;10713;51.912;4.494;2023-03-04T11:28:19;2.05;;;1.10;;
21110;SDS011;10713;51.912;4.494;2023-03-04T11:36:28;5.40;;;1.20;;
21110;SDS011;10713;51.912;4.494;2023-03-04T11:38:48;5.15;;;1.13;;
21110;SDS011;10713;51.912;4.494;2023-03-04T11:41:29;4.15;;;1.23;;
21110;SDS011;10713;51.912;4.494;2023-03-04T11:43:56;5.45;;;1.38;;
21110;SDS011;10713;51.912;4.494;2023-03-04T11:51:59;2.08;;;0.80;;
21110;SDS011;10713;51.912;4.494;2023-03-04T11:54:43;5.22;;;1.20;;
21110;SDS011;10713;51.912;4.494;2023-03-04T12:05:52;4.13;;;1.08;;
21110;SDS011;10713;51.912;4.494;2023-03-04T12:12:04;5.63;;;1.00;;
21110;SDS011;10713;51.912;4.494;2023-03-04T12:14:43;4.55;;;1.20;;
21110;SDS011;10713;51.912;4.494;2023-03-04T12:22:57;4.65;;;1.02;;
21110;SDS011;10713;51.912;4.494;2023-03-04T12:39:31;8.50;;;1.55;;
21110;SDS011;10713;51.912;4.494;2023-03-04T12:45:19;3.97;;;1.30;;
21110;SDS011;10713;51.912;4.494;2023-03-04T12:50:36;2.85;;;0.90;;
21110;SDS011;10713;51.912;4.494;2023-03-04T12:53:52;3.33;;;0.85;;
21110;SDS011;10713;51.912;4.494;2023-03-04T12:56:39;2.75;;;0.75;;
21110;SDS011;10713;51.912;4.494;2023-03-04T12:59:18;3.25;;;0.75;;
21110;SDS011;10713;51.912;4.494;2023-03-04T13:01:48;2.15;;;0.68;;
21110;SDS011;10713;51.912;4.494;2023-03-04T13:04:33;2.25;;;0.80;;
21110;SDS011;10713;51.912;4.494;2023-03-04T13:07:15;6.35;;;1.20;;
21110;SDS011;10713;51.912;4.494;2023-03-04T13:09:57;2.70;;;0.90;;
21110;SDS011;10713;51.912;4.494;2023-03-04T13:12:29;5.40;;;1.38;;
21110;SDS011;10713;51.912;4.494;2023-03-04T13:17:56;7.13;;;1.30;;
21110;SDS011;10713;51.912;4.494;2023-03-04T13:51:18;4.00;;;1.20;;
21110;SDS011;10713;51.912;4.494;2023-03-04T13:54:38;4.68;;;1.25;;
21110;SDS011;10713;51.912;4.494;2023-03-04T13:59:29;8.65;;;1.70;;
21110;SDS011;10713;51.912;4.494;2023-03-04T14:04:40;5.70;;;1.30;;
21110;SDS011;10713;51.912;4.494;2023-03-04T14:07:31;9.90;;;1.50;;
21110;SDS011;10713;51.912;4.494;2023-03-04T14:10:00;6.18;;;1.73;;
21110;SDS011;10713;51.912;4.494;2023-03-04T14:13:14;4.90;;;1.10;;
21110;SDS011;10713;51.912;4.494;2023-03-04T14:17:50;3.75;;;1.35;;
21110;SDS011;10713;51.912;4.494;2023-03-04T14:22:57;5.57;;;1.38;;
21110;SDS011;10713;51.912;4.494;2023-03-04T14:25:25;6.35;;;1.42;;
21110;SDS011;10713;51.912;4.494;2023-03-04T14:28:02;3.38;;;1.30;;
21110;SDS011;10713;51.912;4.494;2023-03-04T14:30:28;3.53;;;1.30;;
21110;SDS011;10713;51.912;4.494;2023-03-04T14:32:55;8.07;;;1.48;;
21110;SDS011;10713;51.912;4.494;2023-03-04T14:35:23;9.32;;;1.33;;
21110;SDS011;10713;51.912;4.494;2023-03-04T14:40:20;11.57;;;1.85;;
21110;SDS011;10713;51.912;4.494;2023-03-04T14:42:47;6.22;;;1.60;;
21110;SDS011;10713;51.912;4.494;2023-03-04T14:45:19;8.98;;;1.63;;
21110;SDS011;10713;51.912;4.494;2023-03-04T14:47:46;11.55;;;1.90;;
21110;SDS011;10713;51.912;4.494;2023-03-04T14:50:14;7.30;;;1.75;;
21110;SDS011;10713;51.912;4.494;2023-03-04T14:52:42;10.93;;;1.85;;
21110;SDS011;10713;51.912;4.494;2023-03-04T14:57:39;10.70;;;1.65;;
21110;SDS011;10713;51.912;4.494;2023-03-04T15:00:16;8.93;;;1.85;;
21110;SDS011;10713;51.912;4.494;2023-03-04T15:02:49;24.65;;;2.35;;
21110;SDS011;10713;51.912;4.494;2023-03-04T15:05:20;14.30;;;1.77;;
21110;SDS011;10713;51.912;4.494;2023-03-04T15:07:50;9.80;;;1.42;;
21110;SDS011;10713;51.912;4.494;2023-03-04T15:10:22;10.93;;;2.20;;
21110;SDS011;10713;51.912;4.494;2023-03-04T15:12:52;6.88;;;1.75;;
21110;SDS011;10713;51.912;4.494;2023-03-04T15:15:35;11.40;;;1.63;;
21110;SDS011;10713;51.912;4.494;2023-03-04T15:18:15;9.57;;;1.75;;
21110;SDS011;10713;51.912;4.494;2023-03-04T15:23:18;10.88;;;1.67;;
21110;SDS011;10713;51.912;4.494;2023-03-04T15:25:43;13.55;;;1.70;;
21110;SDS011;10713;51.912;4.494;2023-03-04T15:28:11;10.85;;;1.70;;
21110;SDS011;10713;51.912;4.494;2023-03-04T15:30:41;12.30;;;1.75;;
21110;SDS011;10713;51.912;4.494;2023-03-04T15:33:10;5.15;;;1.50;;
21110;SDS011;10713;51.912;4.494;2023-03-04T15:35:37;11.98;;;1.73;;
21110;SDS011;10713;51.912;4.494;2023-03-04T15:38:04;10.57;;;1.42;;
21110;SDS011;10713;51.912;4.494;2023-03-04T15:40:37;9.68;;;1.70;;
21110;SDS011;10713;51.912;4.494;2023-03-04T15:43:10;8.25;;;1.67;;
21110;SDS011;10713;51.912;4.494;2023-03-04T15:45:39;10.15;;;1.70;;
21110;SDS011;10713;51.912;4.494;2023-03-04T15:48:05;8.10;;;1.67;;
21110;SDS011;10713;51.912;4.494;2023-03-04T15:50:34;11.43;;;1.60;;
21110;SDS011;10713;51.912;4.494;2023-03-04T15:53:02;6.22;;;1.48;;
21110;SDS011;10713;51.912;4.494;2023-03-04T15:55:31;7.47;;;1.83;;
21110;SDS011;10713;51.912;4.494;2023-03-04T15:57:57;9.60;;;1.65;;
21110;SDS011;10713;51.912;4.494;2023-03-04T16:00:24;8.43;;;1.60;;
21110;SDS011;10713;51.912;4.494;2023-03-04T16:02:50;15.18;;;2.45;;
21110;SDS011;10713;51.912;4.494;2023-03-04T16:05:15;10.63;;;1.48;;
21110;SDS011;10713;51.912;4.494;2023-03-04T16:07:41;16.60;;;1.92;;
21110;SDS011;10713;51.912;4.494;2023-03-04T16:10:16;9.93;;;2.22;;
21110;SDS011;10713;51.912;4.494;2023-03-04T16:12:45;13.63;;;1.73;;
21110;SDS011;10713;51.912;4.494;2023-03-04T16:15:12;9.35;;;1.70;;
21110;SDS011;10713;51.912;4.494;2023-03-04T16:17:39;13.50;;;2.22;;
21110;SDS011;10713;51.912;4.494;2023-03-04T16:20:08;10.10;;;1.60;;
21110;SDS011;10713;51.912;4.494;2023-03-04T16:22:38;10.30;;;1.80;;
21110;SDS011;10713;51.912;4.494;2023-03-04T16:25:07;12.15;;;2.08;;
21110;SDS011;10713;51.912;4.494;2023-03-04T16:27:35;13.70;;;2.22;;
21110;SDS011;10713;51.912;4.494;2023-03-04T16:30:00;12.68;;;2.60;;
21110;SDS011;10713;51.912;4.494;2023-03-04T16:32:26;15.35;;;2.42;;
21110;SDS011;10713;51.912;4.494;2023-03-04T16:34:51;13.27;;;2.30;;
21110;SDS011;10713;51.912;4.494;2023-03-04T16:37:17;12.20;;;1.92;;
21110;SDS011;10713;51.912;4.494;2023-03-04T16:39:44;10.30;;;2.10;;
21110;SDS011;10713;51.912;4.494;2023-03-04T16:42:16;10.95;;;1.77;;
21110;SDS011;10713;51.912;4.494;2023-03-04T16:44:45;10.23;;;1.80;;
21110;SDS011;10713;51.912;4.494;2023-03-04T16:47:12;11.48;;;1.75;;
21110;SDS011;10713;51.912;4.494;2023-03-04T16:49:37;8.02;;;1.58;;
21110;SDS011;10713;51.912;4.494;2023-03-04T16:52:03;7.13;;;1.50;;
21110;SDS011;10713;51.912;4.494;2023-03-04T16:54:30;7.43;;;1.48;;
21110;SDS011;10713;51.912;4.494;2023-03-04T16:56:57;9.25;;;1.40;;
21110;SDS011;10713;51.912;4.494;2023-03-04T16:59:23;8.60;;;1.45;;
21110;SDS011;10713;51.912;4.494;2023-03-04T17:01:48;6.05;;;1.60;;
21110;SDS011;10713;51.912;4.494;2023-03-04T17:04:13;11.07;;;1.60;;
21110;SDS011;10713;51.912;4.494;2023-03-04T17:06:39;9.00;;;1.63;;
21110;SDS011;10713;51.912;4.494;2023-03-04T17:09:05;8.52;;;1.48;;